Time;durP1;ratioP1;P1;durP2;ratioP2;P2;SDS_P1;SDS_P2;PMS_P1;PMS_P2;Temp;Humidity;BMP_temperature;BMP_pressure;BME280_temperature;BME280_humidity;BME280_pressure;Samples;Min_cycle;Max_cycle;Signal;HPM_P1;HPM_P2
2021/03/03 00:02:07;;;;;;;40.40;21.30;;;;;;;3.18;64.45;100277.00;4813954;29;20043;-79
2021/03/03 00:04:32;;;;;;;45.72;24.88;;;;;;;3.15;64.16;100272.09;4793592;29;20133;-81
2021/03/03 00:06:57;;;;;;;65.15;28.70;;;;;;;3.15;64.73;100266.78;4809618;29;20413;-81
2021/03/03 00:09:23;;;;;;;56.67;29.20;;;;;;;3.13;64.14;100266.19;4809599;29;20030;-77
2021/03/03 00:11:48;;;;;;;57.65;30.42;;;;;;;3.10;64.51;100269.22;4795101;29;20038;-80
2021/03/03 00:14:14;;;;;;;52.63;24.85;;;;;;;3.07;64.56;100267.78;4808378;29;20038;-81
2021/03/03 00:16:39;;;;;;;27.58;17.08;;;;;;;3.04;64.52;100273.47;4827245;29;20053;-80
2021/03/03 00:19:05;;;;;;;24.70;14.02;;;;;;;2.99;64.19;100274.06;4824527;29;20040;-80
2021/03/03 00:21:30;;;;;;;20.02;13.23;;;;;;;2.96;64.32;100268.34;4824708;29;20130;-79
2021/03/03 00:23:56;;;;;;;28.15;11.77;;;;;;;2.95;63.89;100259.59;4825359;29;20038;-79
2021/03/03 00:26:21;;;;;;;24.88;13.25;;;;;;;2.94;64.11;100263.28;4825502;29;20103;-79
2021/03/03 00:28:46;;;;;;;31.13;16.55;;;;;;;2.92;64.45;100267.94;4838379;29;20073;-79
2021/03/03 00:31:13;;;;;;;21.48;11.80;;;;;;;2.92;63.85;100264.44;4846694;29;20030;-78
2021/03/03 00:33:38;;;;;;;21.23;10.63;;;;;;;2.91;63.96;100268.13;4829947;29;20041;-79
2021/03/03 00:36:04;;;;;;;16.38;10.43;;;;;;;2.91;63.76;100266.28;4844381;29;20098;-80
2021/03/03 00:38:30;;;;;;;21.20;11.95;;;;;;;2.88;64.05;100253.44;4831381;29;20030;-79
2021/03/03 00:40:55;;;;;;;26.88;13.75;;;;;;;2.88;63.93;100254.28;4846399;29;20626;-79
2021/03/03 00:43:21;;;;;;;25.83;13.70;;;;;;;2.89;63.75;100255.09;4841642;29;20034;-79
2021/03/03 00:45:46;;;;;;;26.23;13.05;;;;;;;2.90;64.06;100251.44;4829995;29;20455;-79
2021/03/03 00:48:12;;;;;;;23.45;13.25;;;;;;;2.92;63.68;100248.59;4844246;29;20089;-79
2021/03/03 00:50:39;;;;;;;31.83;16.48;;;;;;;2.94;64.00;100247.41;4830696;29;20059;-80
2021/03/03 00:58:59;;;;;;;27.88;15.57;;;;;;;3.01;63.78;100240.31;4935014;24;20070;-78
2021/03/03 01:01:24;;;;;;;25.67;13.20;;;;;;;3.07;63.64;100240.56;4847352;29;20119;-78
2021/03/03 01:04:05;;;;;;;29.83;14.38;;;;;;;3.14;63.26;100246.69;4836054;29;20021;-82
2021/03/03 01:10:08;;;;;;;27.45;13.00;;;;;;;3.21;63.09;100234.31;4861384;29;20105;-81
2021/03/03 01:12:33;;;;;;;29.90;13.85;;;;;;;3.25;62.71;100237.34;4830352;29;20515;-79
2021/03/03 01:14:58;;;;;;;23.98;13.13;;;;;;;3.30;62.77;100227.81;4845528;29;20054;-80
2021/03/03 01:17:24;;;;;;;23.33;12.90;;;;;;;3.36;62.65;100229.66;4844385;29;20041;-80
2021/03/03 01:20:32;;;;;;;30.52;13.85;;;;;;;3.43;62.45;100223.56;4846646;29;20042;-82
2021/03/03 01:23:47;;;;;;;29.70;15.32;;;;;;;3.48;61.89;100231.75;4829847;29;20033;-81
2021/03/03 01:26:12;;;;;;;26.13;14.75;;;;;;;3.53;61.74;100221.38;4791848;29;20609;-80
2021/03/03 01:29:06;;;;;;;30.00;13.85;;;;;;;3.58;61.82;100224.22;4978358;24;20021;-81
2021/03/03 01:31:32;;;;;;;24.73;13.70;;;;;;;3.61;61.60;100231.75;4815309;29;20122;-78
2021/03/03 01:33:58;;;;;;;19.80;11.35;;;;;;;3.63;61.35;100224.44;4812547;29;20551;-77
2021/03/03 01:36:32;;;;;;;23.48;11.35;;;;;;;3.67;61.03;100230.97;4828838;29;20099;-79
2021/03/03 01:38:58;;;;;;;23.85;11.98;;;;;;;3.71;60.63;100225.25;4823963;29;20084;-77
2021/03/03 01:41:26;;;;;;;22.52;12.27;;;;;;;3.72;60.79;100227.72;4810437;29;20030;-81
2021/03/03 01:44:16;;;;;;;24.85;11.93;;;;;;;3.77;60.35;100230.59;4812732;29;20030;-82
2021/03/03 01:47:19;;;;;;;19.52;10.93;;;;;;;3.82;60.13;100229.94;4816503;29;20058;-82
2021/03/03 01:49:44;;;;;;;23.30;11.95;;;;;;;3.83;59.77;100226.28;4823599;29;20042;-79
2021/03/03 01:52:14;;;;;;;23.58;14.60;;;;;;;3.84;60.44;100228.75;4833652;29;20034;-81
2021/03/03 01:54:39;;;;;;;26.63;11.77;;;;;;;3.84;60.44;100227.94;4828458;29;20037;-79
2021/03/03 01:57:06;;;;;;;25.02;11.68;;;;;;;3.83;59.82;100232.41;4813328;29;20492;-79
2021/03/03 01:59:31;;;;;;;24.38;13.00;;;;;;;3.81;60.39;100228.34;4812620;29;20571;-78
2021/03/03 02:01:56;;;;;;;30.33;12.25;;;;;;;3.80;60.54;100232.00;4813899;29;20065;-77
2021/03/03 02:04:27;;;;;;;20.15;12.05;;;;;;;3.81;60.18;100236.28;4828204;29;20026;-80
2021/03/03 02:07:06;;;;;;;23.98;11.63;;;;;;;3.83;60.17;100239.53;4828655;29;20034;-79
2021/03/03 02:10:06;;;;;;;23.38;12.65;;;;;;;3.84;59.84;100238.50;4828357;29;20141;-80
2021/03/03 02:13:13;;;;;;;25.98;11.88;;;;;;;3.85;60.01;100235.66;4816200;29;20038;-80
2021/03/03 02:15:57;;;;;;;24.15;12.40;;;;;;;3.90;59.68;100237.69;4809670;29;20034;-78
2021/03/03 02:18:24;;;;;;;22.30;11.50;;;;;;;3.93;59.48;100241.78;4791941;29;20027;-78
2021/03/03 02:20:56;;;;;;;20.10;10.45;;;;;;;3.96;59.75;100239.53;4808554;29;20068;-78
2021/03/03 02:23:37;;;;;;;21.52;11.13;;;;;;;3.98;59.77;100234.88;4791614;29;20413;-78
2021/03/03 02:26:04;;;;;;;21.55;11.15;;;;;;;4.01;59.20;100239.75;4790956;29;20079;-78
2021/03/03 02:28:30;;;;;;;25.38;11.60;;;;;;;4.05;59.17;100239.34;4790201;29;20039;-79
2021/03/03 02:30:57;;;;;;;22.67;11.98;;;;;;;4.06;59.13;100238.34;4791570;29;20030;-79
2021/03/03 02:33:23;;;;;;;24.92;12.07;;;;;;;4.07;58.94;100237.31;4790533;29;20035;-77
2021/03/03 02:35:49;;;;;;;24.75;11.82;;;;;;;4.10;58.64;100242.19;4790802;29;20516;-77
2021/03/03 02:38:15;;;;;;;23.33;12.05;;;;;;;4.12;58.80;100245.47;4805525;29;20038;-77
2021/03/03 02:40:43;;;;;;;22.30;12.35;;;;;;;4.11;58.50;100239.38;4806571;29;20061;-77
2021/03/03 02:43:13;;;;;;;21.88;11.38;;;;;;;4.08;58.71;100247.69;4806162;29;20039;-77
2021/03/03 02:45:47;;;;;;;19.48;10.43;;;;;;;4.04;58.92;100257.06;4808222;29;20063;-80
2021/03/03 02:48:14;;;;;;;20.17;11.85;;;;;;;3.97;59.20;100251.75;4796444;29;20064;-78
2021/03/03 02:50:41;;;;;;;20.50;10.27;;;;;;;3.87;59.14;100248.72;4799473;29;20030;-78
2021/03/03 02:53:07;;;;;;;20.27;10.52;;;;;;;3.79;59.89;100249.69;4797088;29;20480;-78
2021/03/03 02:55:33;;;;;;;17.02;10.52;;;;;;;3.72;59.78;100248.88;4797780;29;20027;-78
2021/03/03 02:58:00;;;;;;;14.45;9.38;;;;;;;3.68;59.94;100252.94;4795736;29;20512;-79
2021/03/03 03:00:38;;;;;;;17.23;9.97;;;;;;;3.65;60.24;100258.63;4795522;29;20038;-78
2021/03/03 03:03:19;;;;;;;17.33;9.95;;;;;;;3.61;60.36;100258.19;4812251;29;20347;-78
2021/03/03 03:05:51;;;;;;;14.95;9.60;;;;;;;3.58;60.41;100253.31;4798551;29;20039;-78
2021/03/03 03:14:49;;;;;;;20.58;9.38;;;;;;;3.58;60.31;100247.25;4726797;30;20111;-78
2021/03/03 03:17:21;;;;;;;13.43;8.27;;;;;;;3.57;60.22;100251.69;4792756;30;20076;-81
2021/03/03 03:19:55;;;;;;;14.75;9.07;;;;;;;3.58;59.89;100255.16;4776463;30;20092;-79
2021/03/03 03:25:53;;;;;;;15.32;8.82;;;;;;;3.64;60.05;100262.31;4888278;24;20153;-80
2021/03/03 03:28:20;;;;;;;18.45;10.02;;;;;;;3.63;60.00;100253.53;4838979;29;20082;-78
2021/03/03 03:30:52;;;;;;;16.92;8.75;;;;;;;3.66;59.57;100250.50;4815228;29;20041;-80
2021/03/03 03:33:19;;;;;;;21.05;9.95;;;;;;;3.66;59.37;100254.97;4833260;29;20098;-81
2021/03/03 03:35:44;;;;;;;20.75;10.20;;;;;;;3.66;59.21;100261.09;4832497;29;20053;-79
2021/03/03 03:38:10;;;;;;;20.83;11.45;;;;;;;3.67;59.63;100262.72;4832136;29;20560;-78
2021/03/03 03:40:35;;;;;;;19.45;10.85;;;;;;;3.69;59.56;100249.28;4829824;29;20068;-78
2021/03/03 03:43:28;;;;;;;18.55;10.30;;;;;;;3.72;59.20;100259.44;4934827;24;20055;-80
2021/03/03 03:46:00;;;;;;;17.27;9.95;;;;;;;3.74;59.05;100256.63;4815043;29;20062;-78
2021/03/03 03:48:27;;;;;;;13.73;8.27;;;;;;;3.76;59.37;100254.56;4839312;29;20532;-78
2021/03/03 03:50:54;;;;;;;20.60;9.63;;;;;;;3.79;59.43;100259.47;4844154;29;20042;-78
2021/03/03 03:53:20;;;;;;;18.33;9.00;;;;;;;3.79;58.84;100252.34;4844539;29;20038;-80
2021/03/03 03:55:46;;;;;;;18.42;9.82;;;;;;;3.81;58.85;100254.81;4844052;29;20037;-78
2021/03/03 03:58:11;;;;;;;21.20;10.38;;;;;;;3.84;58.84;100257.03;4846340;29;20037;-79
2021/03/03 04:00:37;;;;;;;18.17;10.27;;;;;;;3.86;59.15;100257.66;4830083;29;20037;-78
2021/03/03 04:03:02;;;;;;;17.73;10.55;;;;;;;3.88;58.79;100263.56;4845148;29;20033;-78
2021/03/03 04:05:28;;;;;;;22.60;9.80;;;;;;;3.85;58.70;100262.13;4844284;29;20026;-78
2021/03/03 04:07:54;;;;;;;16.42;9.27;;;;;;;3.88;58.52;100265.38;4829515;29;20049;-79
2021/03/03 04:10:23;;;;;;;14.82;9.32;;;;;;;3.86;58.97;100262.97;4845525;29;20480;-80
2021/03/03 04:19:00;;;;;;;16.85;8.93;;;;;;;3.89;58.12;100267.84;5839930;24;20089;-79
2021/03/03 04:22:29;;;;;;;13.93;8.38;;;;;;;3.95;58.79;100268.88;4845561;29;20077;-81
2021/03/03 04:24:55;;;;;;;13.55;8.05;;;;;;;3.99;58.47;100270.91;4830820;29;20045;-78
2021/03/03 04:27:22;;;;;;;11.93;7.43;;;;;;;4.04;58.15;100274.78;4828349;29;20066;-81
2021/03/03 04:29:47;;;;;;;12.43;7.35;;;;;;;4.07;58.14;100280.47;4843535;29;20037;-81
2021/03/03 04:32:12;;;;;;;16.42;8.85;;;;;;;4.12;58.43;100280.69;4843545;29;20041;-79
2021/03/03 04:34:38;;;;;;;16.75;8.27;;;;;;;4.15;57.96;100280.28;4843005;29;20038;-80
2021/03/03 04:37:03;;;;;;;14.27;7.80;;;;;;;4.19;57.88;100280.69;4843661;29;20102;-79
2021/03/03 04:40:25;;;;;;;18.45;8.73;;;;;;;4.23;57.84;100278.47;4844152;29;20041;-83
2021/03/03 04:46:18;;;;;;;16.33;8.35;;;;;;;4.23;58.02;100281.91;4748654;29;20059;-81
2021/03/03 04:52:28;;;;;;;15.75;8.50;;;;;;;4.17;58.58;100293.31;4830987;29;20048;-80
2021/03/03 04:56:10;;;;;;;15.05;8.13;;;;;;;4.20;58.62;100292.09;4797898;29;20505;-80
2021/03/03 05:04:03;;;;;;;16.70;8.52;;;;;;;4.51;57.44;100310.03;4852517;29;20049;-83
2021/03/03 05:06:29;;;;;;;15.35;8.18;;;;;;;4.62;57.08;100305.94;4846489;29;20531;-79
2021/03/03 05:08:54;;;;;;;14.77;8.18;;;;;;;4.76;56.54;100318.16;4825869;29;20033;-79
2021/03/03 05:11:21;;;;;;;12.02;7.75;;;;;;;4.91;56.47;100311.84;4841876;29;20411;-80
2021/03/03 05:13:47;;;;;;;14.93;8.57;;;;;;;5.11;56.02;100317.91;4841232;29;20053;-80
2021/03/03 05:16:12;;;;;;;15.70;7.15;;;;;;;5.27;55.60;100313.97;4831939;29;20030;-81
2021/03/03 05:18:39;;;;;;;19.05;8.82;;;;;;;5.48;55.09;100317.38;4832034;29;20038;-81
2021/03/03 05:21:05;;;;;;;16.40;7.70;;;;;;;5.69;54.81;100318.06;4828540;29;20030;-79
2021/03/03 05:23:32;;;;;;;14.73;7.82;;;;;;;5.92;54.14;100321.00;4828851;29;20507;-79
2021/03/03 05:26:02;;;;;;;12.38;7.45;;;;;;;6.12;52.69;100319.31;4940373;24;20105;-79
2021/03/03 05:28:28;;;;;;;14.30;6.57;;;;;;;6.26;52.30;100315.50;4806846;29;20047;-77
2021/03/03 05:30:53;;;;;;;13.50;7.47;;;;;;;6.41;51.38;100317.84;4808560;29;20046;-77
2021/03/03 05:33:33;;;;;;;13.57;7.72;;;;;;;6.60;51.29;100323.22;4827065;29;20037;-77
2021/03/03 05:36:02;;;;;;;12.00;6.85;;;;;;;6.78;50.67;100328.56;4810709;29;20070;-78
2021/03/03 05:38:28;;;;;;;10.18;6.85;;;;;;;6.96;50.38;100322.47;4821703;29;20045;-77
2021/03/03 05:40:55;;;;;;;12.75;6.97;;;;;;;7.14;49.50;100326.16;4793814;29;20031;-77
2021/03/03 05:43:22;;;;;;;11.18;6.47;;;;;;;7.20;49.50;100326.09;4813412;29;20038;-78
2021/03/03 05:45:49;;;;;;;11.82;6.82;;;;;;;7.41;49.20;100329.34;4813841;29;20452;-79
2021/03/03 05:48:51;;;;;;;11.38;7.50;;;;;;;7.61;48.83;100337.06;4795648;29;20039;-80
2021/03/03 05:51:17;;;;;;;12.60;6.47;;;;;;;7.73;47.47;100337.13;4790573;29;20049;-79
2021/03/03 05:53:44;;;;;;;12.57;7.35;;;;;;;7.82;47.49;100326.97;4806769;29;20031;-78
2021/03/03 05:56:10;;;;;;;12.52;6.43;;;;;;;7.95;46.99;100340.13;4807482;29;20031;-80
2021/03/03 05:58:38;;;;;;;10.60;6.75;;;;;;;8.07;46.71;100345.50;4811981;29;20031;-77
2021/03/03 06:01:05;;;;;;;11.30;7.05;;;;;;;8.20;46.52;100346.31;4795387;29;20047;-79
2021/03/03 06:03:31;;;;;;;13.02;7.15;;;;;;;8.30;45.27;100343.91;4811285;29;20038;-78
2021/03/03 06:05:56;;;;;;;13.05;7.70;;;;;;;8.36;45.61;100352.84;4802475;29;20131;-78
2021/03/03 06:08:25;;;;;;;12.85;7.32;;;;;;;8.43;45.07;100354.38;4793451;29;20039;-78
2021/03/03 06:10:51;;;;;;;8.45;5.35;;;;;;;8.51;45.20;100352.44;4790281;30;20046;-77
2021/03/03 06:13:17;;;;;;;12.00;7.38;;;;;;;8.61;44.70;100350.84;4799516;29;20046;-76
2021/03/03 06:15:43;;;;;;;13.77;6.40;;;;;;;8.70;44.90;100356.63;4824210;29;20434;-76
2021/03/03 06:18:11;;;;;;;11.30;6.30;;;;;;;8.72;44.21;100359.09;4824415;29;20444;-79
2021/03/03 06:20:43;;;;;;;10.30;6.20;;;;;;;8.78;44.64;100368.81;4822989;29;20027;-79
2021/03/03 06:23:20;;;;;;;10.98;7.25;;;;;;;8.84;44.21;100367.06;4805630;29;20049;-81
2021/03/03 06:25:49;;;;;;;12.40;6.25;;;;;;;8.85;43.43;100368.69;4808293;29;20030;-80
2021/03/03 06:28:32;;;;;;;12.00;7.20;;;;;;;8.95;44.30;100366.28;4817499;29;20046;-79
2021/03/03 06:31:49;;;;;;;13.50;6.47;;;;;;;9.07;44.02;100371.59;4797681;29;20034;-81
2021/03/03 06:34:35;;;;;;;13.93;5.97;;;;;;;9.16;43.76;100374.75;4788437;29;20112;-83
2021/03/03 06:37:05;;;;;;;13.35;6.90;;;;;;;9.21;43.13;100377.53;4807912;29;20446;-82
2021/03/03 06:39:36;;;;;;;12.82;6.57;;;;;;;9.31;43.18;100384.94;4800358;29;20034;-81
2021/03/03 06:42:26;;;;;;;9.73;6.60;;;;;;;9.39;42.61;100381.91;4809716;29;20045;-81
2021/03/03 06:44:56;;;;;;;14.05;7.10;;;;;;;9.48;42.46;100382.34;4750055;29;20528;-81
2021/03/03 06:47:23;;;;;;;10.70;5.72;;;;;;;9.54;42.37;100379.53;4792312;29;20494;-79
2021/03/03 06:49:50;;;;;;;9.60;4.97;;;;;;;9.63;41.93;100379.19;4813907;29;20061;-78
2021/03/03 06:52:15;;;;;;;10.80;6.50;;;;;;;9.72;42.16;100385.78;4824482;29;20035;-80
2021/03/03 06:54:41;;;;;;;8.65;6.30;;;;;;;9.82;42.46;100383.28;4812977;29;20038;-79
2021/03/03 06:57:10;;;;;;;10.20;6.10;;;;;;;9.96;41.95;100375.00;4817949;29;20038;-80
2021/03/03 06:59:35;;;;;;;;;;;;;;;10.04;41.38;100378.09;4823637;29;20026;-79
2021/03/03 07:02:08;;;;;;;9.95;5.80;;;;;;;10.05;41.75;100377.03;4818874;29;20019;-78
2021/03/03 07:04:38;;;;;;;12.60;5.72;;;;;;;10.17;40.80;100389.56;4787282;29;20045;-79
2021/03/03 07:07:10;;;;;;;10.82;5.63;;;;;;;10.22;41.26;100386.97;4822352;29;20057;-78
2021/03/03 07:09:53;;;;;;;12.80;5.78;;;;;;;10.37;41.29;100392.59;4791587;29;20042;-78
2021/03/03 07:12:21;;;;;;;11.43;6.90;;;;;;;10.42;40.80;100394.56;4808748;29;20034;-87
2021/03/03 07:15:20;;;;;;;9.27;5.97;;;;;;;10.54;40.73;100399.84;4795446;29;20047;-90
2021/03/03 07:17:46;;;;;;;9.38;5.53;;;;;;;10.62;40.34;100395.94;4803860;29;20131;-82
2021/03/03 07:20:16;;;;;;;10.30;6.07;;;;;;;10.70;40.31;100401.69;4804006;29;20114;-89
2021/03/03 07:22:49;;;;;;;11.52;6.65;;;;;;;10.70;40.91;100399.03;4804881;29;20151;-82
2021/03/03 07:25:16;;;;;;;10.00;6.22;;;;;;;10.76;39.83;100401.81;4804104;29;20100;-81
2021/03/03 07:27:43;;;;;;;6.55;5.07;;;;;;;10.81;40.50;100397.31;4803379;29;20505;-83
2021/03/03 07:30:13;;;;;;;8.68;5.97;;;;;;;10.86;40.96;100400.09;4794314;29;20117;-79
2021/03/03 07:32:38;;;;;;;11.50;5.82;;;;;;;10.91;42.91;100401.22;4813770;29;20039;-83
2021/03/03 07:35:06;;;;;;;9.77;5.82;;;;;;;10.93;40.76;100404.47;4804158;29;20080;-94
2021/03/03 07:37:37;;;;;;;9.13;6.43;;;;;;;10.97;40.00;100402.91;4788603;29;20581;-85
2021/03/03 07:40:14;;;;;;;9.90;5.80;;;;;;;10.97;41.00;100403.72;4805140;29;20051;-87
2021/03/03 07:42:42;;;;;;;10.90;6.70;;;;;;;11.02;41.93;100403.00;4789322;29;20432;-91
2021/03/03 07:45:10;;;;;;;9.75;6.40;;;;;;;10.99;42.47;100400.81;4801649;29;20476;-89
2021/03/03 07:47:37;;;;;;;10.90;6.18;;;;;;;10.91;41.49;100402.03;4795113;29;20035;-82
2021/03/03 07:50:12;;;;;;;9.77;6.60;;;;;;;10.83;43.12;100405.13;4803709;29;20038;-81
2021/03/03 07:53:02;;;;;;;11.35;7.38;;;;;;;10.82;42.36;100406.19;4814296;29;20043;-92
2021/03/03 07:56:07;;;;;;;12.27;6.65;;;;;;;10.83;42.56;100400.56;4806956;29;20043;-94
2021/03/03 07:58:43;;;;;;;8.48;5.70;;;;;;;10.89;42.97;100407.63;4805080;29;20568;-90
2021/03/03 08:01:11;;;;;;;9.82;6.28;;;;;;;10.99;42.40;100412.31;4789519;29;20031;-87
2021/03/03 08:03:44;;;;;;;12.73;6.03;;;;;;;11.05;42.19;100416.69;4793683;29;20046;-83
2021/03/03 08:06:39;;;;;;;8.35;4.85;;;;;;;11.16;42.28;100422.22;4788199;29;20047;-82
2021/03/03 08:09:13;;;;;;;9.07;5.63;;;;;;;11.27;41.28;100415.94;4810863;29;20034;-81
2021/03/03 08:11:41;;;;;;;11.45;6.18;;;;;;;11.31;41.79;100414.38;4801361;29;20034;-86
2021/03/03 08:14:33;;;;;;;13.20;6.72;;;;;;;11.42;41.56;100425.25;4821602;29;20574;-82
2021/03/03 08:17:01;;;;;;;13.45;6.80;;;;;;;11.34;41.39;100416.56;4808947;29;20091;-91
2021/03/03 08:19:58;;;;;;;8.23;6.13;;;;;;;11.35;41.69;100415.53;4814825;29;20125;-89
2021/03/03 08:22:53;;;;;;;10.00;5.95;;;;;;;11.37;40.81;100413.38;4791662;29;20046;-93
2021/03/03 08:25:43;;;;;;;10.70;6.38;;;;;;;11.45;41.16;100425.56;4797484;29;20046;-79
2021/03/03 08:28:47;;;;;;;11.25;5.90;;;;;;;11.47;40.65;100431.47;4794502;29;20050;-88
2021/03/03 08:31:16;;;;;;;11.15;6.18;;;;;;;11.56;40.86;100437.22;4797302;29;20065;-79
2021/03/03 08:33:54;;;;;;;9.35;6.03;;;;;;;11.61;39.55;100423.88;4791781;29;20530;-79
2021/03/03 08:36:19;;;;;;;10.43;5.75;;;;;;;11.64;40.06;100426.06;4804505;29;20027;-85
2021/03/03 08:38:45;;;;;;;9.27;5.50;;;;;;;11.72;39.64;100413.28;4792155;29;20050;-80
2021/03/03 08:41:14;;;;;;;10.63;6.15;;;;;;;11.87;40.00;100423.41;4804018;29;20035;-84
2021/03/03 08:43:40;;;;;;;8.93;5.88;;;;;;;11.94;40.67;100424.81;4788593;29;20045;-87
2021/03/03 08:46:17;;;;;;;12.70;7.07;;;;;;;11.99;41.63;100426.78;4807856;29;20532;-84
2021/03/03 08:48:43;;;;;;;10.07;6.22;;;;;;;12.01;41.03;100421.94;4787998;29;20039;-84
2021/03/03 08:51:21;;;;;;;10.40;6.28;;;;;;;12.07;39.16;100426.34;4800120;29;20039;-83
2021/03/03 08:53:53;;;;;;;8.55;5.68;;;;;;;12.12;39.29;100420.19;4790822;29;20129;-83
2021/03/03 08:56:48;;;;;;;13.27;5.60;;;;;;;12.16;39.48;100422.13;4800134;29;20121;-84
2021/03/03 08:59:28;;;;;;;8.98;5.95;;;;;;;12.21;39.50;100424.06;4815427;29;20038;-83
2021/03/03 09:02:15;;;;;;;11.68;5.43;;;;;;;12.23;39.68;100421.13;4787735;29;20058;-84
2021/03/03 09:04:52;;;;;;;10.93;6.65;;;;;;;12.28;38.79;100426.53;4802890;29;20445;-81
2021/03/03 09:07:25;;;;;;;7.75;5.75;;;;;;;12.22;38.86;100425.69;4787851;29;20047;-81
2021/03/03 09:09:52;;;;;;;12.80;6.50;;;;;;;12.22;38.99;100422.16;4784990;29;20035;-81
2021/03/03 09:12:28;;;;;;;10.60;6.72;;;;;;;12.22;38.03;100417.63;4802153;29;20039;-79
2021/03/03 09:14:59;;;;;;;9.23;5.38;;;;;;;12.22;38.34;100412.28;4783750;29;20039;-82
2021/03/03 09:17:30;;;;;;;8.98;5.38;;;;;;;12.24;35.95;100426.25;4807481;29;20035;-84
2021/03/03 09:19:59;;;;;;;9.25;5.50;;;;;;;12.21;34.89;100424.06;4802377;29;20047;-84
2021/03/03 09:22:29;;;;;;;6.53;4.30;;;;;;;12.20;32.48;100427.78;4801842;29;20035;-84
2021/03/03 09:25:03;;;;;;;11.35;5.80;;;;;;;12.23;33.07;100431.84;4802510;29;20422;-84
2021/03/03 09:27:29;;;;;;;6.35;4.10;;;;;;;12.23;32.58;100421.94;4802512;29;20516;-84
2021/03/03 09:29:56;;;;;;;4.85;3.92;;;;;;;12.29;33.04;100425.47;4790414;29;20039;-85
2021/03/03 09:32:21;;;;;;;7.75;5.50;;;;;;;12.32;33.07;100419.59;4802362;29;20030;-83
2021/03/03 09:34:54;;;;;;;9.40;5.18;;;;;;;12.36;33.15;100418.03;4802927;29;20039;-84
2021/03/03 09:37:21;;;;;;;6.60;4.22;;;;;;;12.41;33.61;100420.75;4802109;29;20041;-85
2021/03/03 09:39:56;;;;;;;7.15;4.22;;;;;;;12.42;33.39;100408.97;4801949;29;20042;-83
2021/03/03 09:42:22;;;;;;;9.68;4.97;;;;;;;12.48;33.80;100407.13;4787109;29;20050;-83
2021/03/03 09:44:57;;;;;;;9.10;5.43;;;;;;;12.54;33.04;100405.31;4802010;29;20122;-82
2021/03/03 09:47:26;;;;;;;7.07;5.10;;;;;;;12.63;32.37;100414.50;4794096;29;20034;-81
2021/03/03 09:49:53;;;;;;;8.77;5.60;;;;;;;12.61;32.31;100406.72;4820714;29;20035;-88
2021/03/03 09:52:19;;;;;;;8.40;5.20;;;;;;;12.64;33.34;100410.75;4805113;29;20034;-81
2021/03/03 09:54:45;;;;;;;9.80;5.75;;;;;;;12.67;33.22;100409.44;4802003;29;20464;-85
2021/03/03 09:57:22;;;;;;;7.90;4.85;;;;;;;12.70;33.53;100407.03;4797514;29;20481;-82
2021/03/03 09:59:49;;;;;;;9.30;5.65;;;;;;;12.72;34.13;100396.88;4785689;29;20471;-80
2021/03/03 10:02:17;;;;;;;9.27;5.80;;;;;;;12.78;33.77;100401.22;4787018;29;20496;-80
2021/03/03 10:04:43;;;;;;;7.18;4.68;;;;;;;12.81;33.81;100394.53;4801808;29;20039;-82
2021/03/03 10:07:18;;;;;;;8.38;5.00;;;;;;;12.86;33.98;100397.22;4802040;29;20043;-82
2021/03/03 10:09:46;;;;;;;10.52;5.82;;;;;;;12.85;33.62;100395.59;4801460;29;20039;-82
2021/03/03 10:12:17;;;;;;;10.48;5.85;;;;;;;12.90;34.06;100392.97;4801934;29;20035;-81
2021/03/03 10:14:55;;;;;;;10.75;6.00;;;;;;;12.94;33.79;100388.69;4801751;29;20121;-81
2021/03/03 10:17:40;;;;;;;7.82;5.18;;;;;;;13.00;34.03;100400.31;4786498;29;20043;-80
2021/03/03 10:20:31;;;;;;;10.05;5.93;;;;;;;13.03;34.20;100397.06;4787090;29;20039;-81
2021/03/03 10:22:58;;;;;;;10.00;5.97;;;;;;;13.06;34.49;100383.16;4786205;29;20051;-81
2021/03/03 10:25:46;;;;;;;8.48;5.72;;;;;;;13.12;34.76;100384.78;4786899;29;20054;-81
2021/03/03 10:28:25;;;;;;;10.07;6.00;;;;;;;13.20;34.56;100374.63;4769356;30;20051;-82
2021/03/03 10:30:57;;;;;;;12.65;5.88;;;;;;;13.20;34.77;100377.31;4768877;30;20048;-81
2021/03/03 10:33:39;;;;;;;9.38;5.53;;;;;;;13.12;34.19;100373.22;4783899;30;20036;-82
2021/03/03 10:36:07;;;;;;;10.63;6.35;;;;;;;13.09;34.90;100361.13;4784002;30;20042;-82
2021/03/03 10:38:37;;;;;;;11.90;8.10;;;;;;;13.12;35.28;100368.69;4768670;30;20468;-81
2021/03/03 10:41:04;;;;;;;11.77;7.53;;;;;;;13.12;34.72;100362.47;4783801;30;20032;-80
2021/03/03 10:43:30;;;;;;;9.93;6.40;;;;;;;13.17;34.52;100359.00;4768858;30;20028;-81
2021/03/03 10:46:12;;;;;;;11.40;6.50;;;;;;;13.20;34.63;100351.25;4768631;30;20041;-80
2021/03/03 10:48:39;;;;;;;12.70;5.20;;;;;;;13.24;34.84;100341.63;4784062;30;20515;-80
2021/03/03 10:51:06;;;;;;;9.40;5.95;;;;;;;13.28;34.39;100339.19;4783886;30;20033;-81
2021/03/03 10:53:50;;;;;;;10.13;6.68;;;;;;;13.31;34.35;100333.31;4783359;30;20135;-82
2021/03/03 10:56:21;;;;;;;10.25;5.90;;;;;;;13.36;34.36;100327.16;4768924;30;20482;-81
2021/03/03 10:58:47;;;;;;;10.82;6.68;;;;;;;13.37;34.07;100323.41;4768627;30;20039;-82
2021/03/03 11:01:14;;;;;;;12.60;6.68;;;;;;;13.43;34.11;100317.78;4783058;30;20576;-81
2021/03/03 11:03:52;;;;;;;9.90;6.70;;;;;;;13.45;34.00;100310.28;4783789;30;20062;-81
2021/03/03 11:06:19;;;;;;;11.95;7.43;;;;;;;13.50;34.17;100311.34;4768735;30;20058;-81
2021/03/03 11:08:45;;;;;;;10.30;6.15;;;;;;;13.54;33.67;100310.56;4783321;30;20126;-80
2021/03/03 11:11:10;;;;;;;10.02;5.97;;;;;;;13.59;33.98;100301.72;4783793;30;20597;-79
2021/03/03 11:13:36;;;;;;;13.20;6.85;;;;;;;13.64;33.59;100311.69;4786974;29;20039;-80
2021/03/03 11:16:03;;;;;;;8.32;5.38;;;;;;;13.67;32.98;100298.53;4786610;30;20032;-82
2021/03/03 11:18:28;;;;;;;9.88;6.20;;;;;;;13.70;33.08;100297.19;4787032;30;20039;-80
2021/03/03 11:20:54;;;;;;;9.05;5.60;;;;;;;13.75;32.96;100294.50;4786836;30;20031;-79
2021/03/03 11:23:20;;;;;;;8.80;5.18;;;;;;;13.77;33.74;100295.84;4786283;30;20063;-80
2021/03/03 11:25:45;;;;;;;9.13;5.15;;;;;;;13.76;33.31;100291.53;4787774;29;20072;-80
2021/03/03 11:28:11;;;;;;;8.48;5.95;;;;;;;13.76;33.08;100288.84;4804817;29;20030;-81
2021/03/03 11:30:36;;;;;;;7.55;5.55;;;;;;;13.79;33.53;100289.38;4804289;29;20045;-79
2021/03/03 11:33:02;;;;;;;7.93;5.55;;;;;;;13.79;33.36;100287.50;4804269;29;20130;-80
2021/03/03 11:35:28;;;;;;;10.32;5.75;;;;;;;13.80;33.67;100281.06;4804602;29;20523;-79
2021/03/03 11:37:53;;;;;;;9.00;5.20;;;;;;;13.85;32.97;100278.38;4803971;29;20042;-81
2021/03/03 11:40:19;;;;;;;9.57;5.10;;;;;;;13.87;33.16;100276.22;4804482;29;20477;-79
2021/03/03 11:42:44;;;;;;;8.52;5.15;;;;;;;13.92;32.92;100264.66;4804326;29;20553;-79
2021/03/03 11:45:10;;;;;;;8.68;6.22;;;;;;;13.95;32.67;100269.50;4803975;29;20548;-80
2021/03/03 11:47:36;;;;;;;7.50;5.43;;;;;;;13.98;32.35;100257.41;4804395;29;20131;-80
2021/03/03 11:50:03;;;;;;;7.60;4.97;;;;;;;14.02;32.20;100253.09;4803964;29;20514;-82
2021/03/03 11:52:28;;;;;;;7.95;5.00;;;;;;;14.08;32.52;100252.81;4803825;29;20042;-83
2021/03/03 11:54:54;;;;;;;8.07;5.45;;;;;;;14.11;32.51;100251.50;4804325;29;20034;-82
2021/03/03 11:57:19;;;;;;;8.65;5.72;;;;;;;14.14;32.55;100258.22;4804567;29;20057;-82
2021/03/03 11:59:44;;;;;;;7.68;5.60;;;;;;;14.17;31.87;100242.34;4803455;29;20512;-82
2021/03/03 12:02:10;;;;;;;5.28;4.38;;;;;;;14.22;31.19;100254.97;4804370;29;20034;-81
2021/03/03 12:04:35;;;;;;;7.55;4.22;;;;;;;14.21;31.42;100248.78;4804538;29;20486;-82
2021/03/03 12:07:01;;;;;;;8.68;5.20;;;;;;;14.22;31.07;100252.28;4804050;29;20033;-81
2021/03/03 12:09:26;;;;;;;8.60;5.90;;;;;;;14.16;30.31;100250.66;4803929;29;20049;-81
2021/03/03 12:11:52;;;;;;;7.63;4.47;;;;;;;14.11;30.41;100245.31;4804212;29;20033;-82
2021/03/03 12:14:17;;;;;;;5.55;4.47;;;;;;;14.13;30.96;100243.16;4804033;29;20485;-81
2021/03/03 12:16:45;;;;;;;8.38;4.80;;;;;;;14.12;30.93;100246.91;4804269;29;20449;-81
2021/03/03 12:19:10;;;;;;;5.70;4.50;;;;;;;14.04;31.02;100243.69;4804318;29;20548;-81
2021/03/03 12:21:36;;;;;;;6.70;4.50;;;;;;;14.04;31.82;100226.75;4804172;29;20031;-82